createdAt,value
2022-09-01T00:00:50.396Z,19.20
2022-09-01T00:02:54.110Z,19.20
2022-09-01T00:04:58.795Z,19.20
2022-09-01T00:07:01.856Z,19.20
2022-09-01T00:09:09.159Z,19.20
2022-09-01T00:11:13.265Z,19.10
2022-09-01T00:13:16.159Z,19.10
2022-09-01T00:15:18.935Z,19.10
2022-09-01T00:17:22.641Z,19.10
2022-09-01T00:19:25.696Z,19.10
2022-09-01T00:21:31.023Z,19.10
2022-09-01T00:23:33.833Z,19.00
2022-09-01T00:25:37.077Z,19.00
2022-09-01T00:27:41.386Z,19.00
2022-09-01T00:29:44.370Z,19.10
2022-09-01T00:31:47.418Z,19.10
2022-09-01T00:33:51.462Z,19.10
2022-09-01T00:35:54.342Z,19.10
2022-09-01T00:37:57.462Z,19.00
2022-09-01T00:40:00.704Z,18.90
2022-09-01T00:42:03.749Z,18.70
2022-09-01T00:44:12.156Z,18.70
2022-09-01T00:46:18.303Z,18.80
2022-09-01T00:48:23.627Z,18.90
2022-09-01T00:50:27.006Z,18.80
2022-09-01T00:52:35.265Z,18.70
2022-09-01T00:54:42.429Z,18.70
2022-09-01T00:56:46.661Z,18.70
2022-09-01T00:58:56.167Z,18.60
2022-09-01T01:01:00.359Z,18.60
2022-09-01T01:03:03.190Z,18.60
2022-09-01T01:05:06.994Z,18.60
2022-09-01T01:07:18.363Z,18.60
2022-09-01T01:09:23.500Z,18.60
2022-09-01T01:11:28.846Z,18.60
2022-09-01T01:13:36.268Z,18.70
2022-09-01T01:15:42.970Z,18.70
2022-09-01T01:17:47.152Z,18.70
2022-09-01T01:20:10.612Z,18.60
2022-09-01T01:22:38.848Z,18.60
2022-09-01T01:24:43.129Z,18.60
2022-09-01T01:26:47.492Z,18.60
2022-09-01T01:28:52.012Z,18.70
2022-09-01T01:31:01.884Z,18.60
2022-09-01T01:33:06.232Z,18.60
2022-09-01T01:35:13.898Z,18.60
2022-09-01T01:37:19.871Z,18.50
2022-09-01T01:39:25.546Z,18.40
2022-09-01T01:41:32.013Z,18.40
2022-09-01T01:43:34.852Z,18.40
2022-09-01T01:45:37.653Z,18.40
2022-09-01T01:47:40.628Z,18.40
2022-09-01T01:49:44.437Z,18.50
2022-09-01T01:51:48.280Z,18.40
2022-09-01T01:53:52.779Z,18.40
2022-09-01T01:55:58.434Z,18.50
2022-09-01T01:58:04.642Z,18.50
2022-09-01T02:00:09.628Z,18.50
2022-09-01T02:02:12.931Z,18.40
2022-09-01T02:04:17.824Z,18.40
2022-09-01T02:06:22.947Z,18.30
2022-09-01T02:08:27.531Z,18.40
2022-09-01T02:10:33.079Z,18.40
2022-09-01T02:12:37.935Z,18.40
2022-09-01T02:14:42.064Z,18.50
2022-09-01T02:16:44.883Z,18.50
2022-09-01T02:18:48.591Z,18.50
2022-09-01T02:20:53.301Z,18.50
2022-09-01T02:22:56.374Z,18.30
2022-09-01T02:25:00.950Z,18.30
2022-09-01T02:27:03.960Z,18.30
2022-09-01T02:29:17.866Z,18.30
2022-09-01T02:31:22.985Z,18.20
2022-09-01T02:33:26.520Z,18.20
2022-09-01T02:35:37.965Z,18.20
2022-09-01T02:37:41.964Z,18.20
2022-09-01T02:39:44.687Z,18.20
2022-09-01T02:41:48.297Z,18.20
2022-09-01T02:43:51.751Z,18.20
2022-09-01T02:45:57.650Z,18.20
2022-09-01T02:48:01.854Z,18.20
2022-09-01T02:50:06.874Z,18.20
2022-09-01T02:52:10.289Z,18.10
2022-09-01T02:54:19.118Z,18.00
2022-09-01T02:56:25.348Z,18.00
2022-09-01T02:58:28.407Z,18.00
2022-09-01T03:00:31.573Z,18.00
2022-09-01T03:02:35.904Z,17.90
2022-09-01T03:04:40.024Z,17.90
2022-09-01T03:06:43.611Z,17.80
2022-09-01T03:08:46.754Z,17.80
2022-09-01T03:10:50.040Z,17.80
2022-09-01T03:12:52.760Z,17.80
2022-09-01T03:14:55.860Z,17.80
2022-09-01T03:17:00.616Z,17.80
2022-09-01T03:19:04.232Z,17.80
2022-09-01T03:21:09.545Z,17.80
2022-09-01T03:23:14.950Z,17.70
2022-09-01T03:25:25.125Z,17.70
2022-09-01T03:27:27.930Z,17.70
2022-09-01T03:29:30.680Z,17.70
2022-09-01T03:31:33.666Z,17.70
2022-09-01T03:33:36.564Z,17.70
2022-09-01T03:35:39.357Z,17.70
2022-09-01T03:37:44.284Z,17.70
2022-09-01T03:39:47.961Z,17.80
2022-09-01T03:41:53.664Z,17.80
2022-09-01T03:43:58.215Z,17.70
2022-09-01T03:46:01.621Z,17.80
2022-09-01T03:48:09.112Z,17.80
2022-09-01T03:50:20.204Z,17.80
2022-09-01T03:52:23.982Z,17.80
2022-09-01T03:54:30.462Z,17.70
2022-09-01T03:56:33.980Z,17.70
2022-09-01T03:58:36.851Z,17.70
2022-09-01T04:00:42.455Z,17.60
2022-09-01T04:02:56.041Z,17.70
2022-09-01T04:05:03.510Z,17.70
2022-09-01T04:07:08.265Z,17.70
2022-09-01T04:09:11.535Z,17.70
2022-09-01T04:11:18.956Z,17.70
2022-09-01T04:13:24.781Z,17.60
2022-09-01T04:15:28.589Z,17.60
2022-09-01T04:17:48.742Z,17.70
2022-09-01T04:19:51.590Z,17.60
2022-09-01T04:21:57.180Z,17.60
2022-09-01T04:24:00.074Z,17.60
2022-09-01T04:26:09.080Z,17.70
2022-09-01T04:28:22.945Z,17.60
2022-09-01T04:30:26.954Z,17.60
2022-09-01T04:32:30.741Z,17.70
2022-09-01T04:34:37.837Z,17.70
2022-09-01T04:36:42.327Z,17.60
2022-09-01T04:38:45.137Z,17.60
2022-09-01T04:40:49.364Z,17.50
2022-09-01T04:42:52.182Z,17.50
2022-09-01T04:44:58.153Z,17.50
2022-09-01T04:47:00.916Z,17.40
2022-09-01T04:49:13.049Z,17.40
2022-09-01T04:51:17.828Z,17.40
2022-09-01T04:53:20.719Z,17.40
2022-09-01T04:55:28.673Z,17.40
2022-09-01T04:57:31.530Z,17.30
2022-09-01T04:59:35.958Z,17.30
2022-09-01T05:01:47.673Z,17.40
2022-09-01T05:04:01.333Z,17.40
2022-09-01T05:06:04.440Z,17.40
2022-09-01T05:08:12.582Z,17.50
2022-09-01T05:10:15.391Z,17.50
2022-09-01T05:12:23.539Z,17.50
2022-09-01T05:14:27.056Z,17.50
2022-09-01T05:16:29.857Z,17.60
2022-09-01T05:18:34.380Z,17.60
2022-09-01T05:20:42.575Z,17.60
2022-09-01T05:22:45.318Z,17.60
2022-09-01T05:24:48.062Z,17.60
2022-09-01T05:26:50.916Z,17.70
2022-09-01T05:28:55.341Z,17.80
2022-09-01T05:31:02.195Z,17.90
2022-09-01T05:33:10.187Z,17.90
2022-09-01T05:35:14.345Z,18.00
2022-09-01T05:37:17.142Z,18.10
2022-09-01T05:39:20.858Z,18.10
2022-09-01T05:41:24.503Z,18.20
2022-09-01T05:43:27.870Z,18.20
2022-09-01T05:45:44.762Z,18.30
2022-09-01T05:47:54.975Z,18.30
2022-09-01T05:49:58.474Z,18.30
2022-09-01T05:52:02.805Z,18.30
2022-09-01T05:54:09.270Z,18.30
2022-09-01T05:56:15.136Z,18.40
2022-09-01T05:58:20.108Z,18.40
2022-09-01T06:00:23.320Z,18.40
2022-09-01T06:02:27.200Z,18.30
2022-09-01T06:04:30.940Z,18.40
2022-09-01T06:07:01.745Z,18.50
2022-09-01T06:09:08.532Z,18.60
2022-09-01T06:11:17.648Z,18.70
2022-09-01T06:13:21.994Z,18.80
2022-09-01T06:15:30.824Z,18.90
2022-09-01T06:17:36.025Z,18.90
2022-09-01T06:19:40.952Z,19.00
2022-09-01T06:21:43.761Z,19.10
2022-09-01T06:23:46.731Z,19.10
2022-09-01T06:25:51.990Z,19.20
2022-09-01T06:27:54.764Z,19.20
2022-09-01T06:29:58.370Z,19.20
2022-09-01T06:32:02.824Z,19.20
2022-09-01T06:34:07.386Z,19.30
2022-09-01T06:36:10.718Z,19.40
2022-09-01T06:38:17.487Z,19.50
2022-09-01T06:40:20.466Z,19.50
2022-09-01T06:42:24.681Z,19.40
2022-09-01T06:44:27.454Z,19.50
2022-09-01T06:46:30.202Z,19.70
2022-09-01T06:48:35.560Z,19.70
2022-09-01T06:55:33.825Z,20.00
2022-09-01T07:00:04.380Z,20.10
2022-09-01T07:02:13.930Z,20.20
2022-09-01T07:04:21.601Z,20.10
2022-09-01T07:12:08.846Z,20.20
2022-09-01T07:16:34.626Z,20.40
2022-09-01T07:18:40.455Z,20.30
2022-09-01T07:23:11.905Z,20.40
2022-09-01T07:25:16.681Z,20.50
2022-09-01T07:27:19.923Z,20.50
2022-09-01T07:29:29.694Z,20.60
2022-09-01T07:32:44.107Z,20.70
2022-09-01T07:43:44.791Z,21.10
2022-09-01T07:48:36.090Z,21.20
2022-09-01T07:53:08.573Z,21.30
2022-09-01T07:55:12.410Z,21.40
2022-09-01T07:57:18.480Z,21.50
2022-09-01T07:59:21.356Z,21.50
2022-09-01T08:01:30.078Z,21.50
2022-09-01T08:03:33.063Z,21.60
2022-09-01T08:05:38.356Z,21.60
2022-09-01T08:07:59.180Z,21.50
2022-09-01T08:10:01.933Z,21.50
2022-09-01T08:12:06.282Z,21.60
2022-09-01T08:14:10.400Z,21.70
2022-09-01T08:16:18.021Z,21.80
2022-09-01T08:18:23.109Z,21.90
2022-09-01T08:20:26.005Z,22.00
2022-09-01T08:22:28.803Z,22.00
2022-09-01T08:24:31.794Z,22.10
2022-09-01T08:26:34.527Z,22.10
2022-09-01T08:28:37.353Z,22.10
2022-09-01T08:30:52.662Z,22.00
2022-09-01T08:32:55.958Z,22.00
2022-09-01T08:35:01.719Z,22.00
2022-09-01T08:37:05.473Z,22.10
2022-09-01T08:39:08.248Z,22.10
2022-09-01T08:41:35.237Z,22.10
2022-09-01T08:43:51.499Z,22.20
2022-09-01T08:45:56.657Z,22.40
2022-09-01T08:48:50.704Z,22.50
2022-09-01T08:50:30.801Z,22.60
2022-09-01T08:52:36.830Z,22.70
2022-09-01T08:54:46.740Z,22.70
2022-09-01T08:56:55.458Z,22.60
2022-09-01T08:59:00.244Z,22.60
2022-09-01T09:01:09.454Z,22.50
2022-09-01T09:03:21.012Z,22.40
2022-09-01T09:05:46.850Z,22.50
2022-09-01T09:08:08.119Z,22.50
2022-09-01T09:10:17.858Z,22.80
2022-09-01T09:12:33.592Z,22.90
2022-09-01T09:15:00.640Z,23.00
2022-09-01T09:17:04.342Z,23.00
2022-09-01T09:19:12.242Z,23.20
2022-09-01T09:21:20.325Z,23.30
2022-09-01T09:23:30.561Z,23.20
2022-09-01T09:25:34.390Z,23.20
2022-09-01T09:27:39.268Z,23.20
2022-09-01T09:29:45.471Z,23.40
2022-09-01T09:31:50.692Z,23.50
2022-09-01T09:33:55.209Z,23.40
2022-09-01T09:36:20.124Z,23.50
2022-09-01T09:38:29.111Z,23.70
2022-09-01T09:40:43.292Z,23.80
2022-09-01T09:43:07.449Z,23.70
2022-09-01T09:45:23.917Z,23.60
2022-09-01T09:47:46.286Z,23.70
2022-09-01T09:49:49.202Z,23.90
2022-09-01T09:51:58.613Z,23.90
2022-09-01T09:54:14.150Z,24.00
2022-09-01T09:56:20.691Z,24.00
2022-09-01T09:58:26.589Z,24.10
2022-09-01T10:00:34.014Z,24.10
2022-09-01T10:02:39.794Z,24.10
2022-09-01T10:04:42.729Z,24.30
2022-09-01T10:06:47.028Z,24.30
2022-09-01T10:08:51.385Z,24.30
2022-09-01T10:10:58.031Z,24.50
2022-09-01T10:13:02.379Z,24.30
2022-09-01T10:15:12.584Z,24.30
2022-09-01T10:17:22.646Z,24.30
2022-09-01T10:19:35.097Z,24.20
2022-09-01T10:21:41.099Z,24.40
2022-09-01T10:23:44.916Z,24.50
2022-09-01T10:25:51.251Z,24.70
2022-09-01T10:27:58.348Z,24.70
2022-09-01T10:30:19.219Z,24.70
2022-09-01T10:32:37.031Z,24.60
2022-09-01T10:34:42.807Z,24.60
2022-09-01T10:36:54.757Z,24.60
2022-09-01T10:39:04.997Z,24.70
2022-09-01T10:41:14.960Z,24.80
2022-09-01T10:43:52.363Z,25.10
2022-09-01T10:45:58.870Z,25.30
2022-09-01T10:48:32.590Z,25.30
2022-09-01T10:50:36.671Z,25.40
2022-09-01T10:52:58.970Z,25.30
2022-09-01T10:55:04.335Z,25.30
2022-09-01T10:57:12.281Z,25.20
2022-09-01T10:59:32.047Z,25.10
2022-09-01T11:02:26.935Z,25.30
2022-09-01T11:05:04.779Z,25.40
2022-09-01T11:07:44.456Z,25.50
2022-09-01T11:10:31.369Z,25.60
2022-09-01T11:12:47.185Z,25.50
2022-09-01T11:14:52.688Z,25.70
2022-09-01T11:17:15.199Z,26.00
2022-09-01T11:19:36.332Z,26.00
2022-09-01T11:21:39.240Z,26.30
2022-09-01T11:23:42.101Z,26.30
2022-09-01T11:25:48.601Z,26.40
2022-09-01T11:28:31.241Z,26.50
2022-09-01T11:30:52.019Z,26.60
2022-09-01T11:33:00.538Z,26.20
2022-09-01T11:35:07.643Z,25.70
2022-09-01T11:37:16.980Z,25.80
2022-09-01T11:39:34.824Z,25.50
2022-09-01T11:41:55.861Z,25.10
2022-09-01T11:44:02.958Z,24.80
2022-09-01T11:46:13.182Z,24.60
2022-09-01T11:48:17.724Z,24.50
2022-09-01T11:50:24.351Z,24.70
2022-09-01T11:52:30.118Z,24.60
2022-09-01T11:54:40.352Z,24.90
2022-09-01T11:56:43.356Z,25.00
2022-09-01T11:58:47.652Z,25.00
2022-09-01T12:00:50.472Z,24.90
2022-09-01T12:02:54.836Z,25.10
2022-09-01T12:04:58.780Z,25.20
2022-09-01T12:07:03.649Z,25.10
2022-09-01T12:09:09.085Z,24.90
2022-09-01T12:11:19.426Z,24.80
2022-09-01T12:13:25.041Z,24.80
2022-09-01T12:15:30.720Z,24.80
2022-09-01T12:17:33.540Z,24.50
2022-09-01T12:19:38.583Z,24.70
2022-09-01T12:21:44.082Z,24.70
2022-09-01T12:23:47.669Z,24.80
2022-09-01T12:25:50.760Z,25.00
2022-09-01T12:27:54.381Z,25.10
2022-09-01T12:29:58.804Z,25.10
2022-09-01T12:32:03.468Z,25.10
2022-09-01T12:34:06.815Z,25.10
2022-09-01T12:36:32.507Z,25.00
2022-09-01T12:38:35.356Z,24.90
2022-09-01T12:40:38.291Z,25.10
2022-09-01T12:42:51.506Z,25.10
2022-09-01T12:44:57.237Z,25.20
2022-09-01T12:47:03.723Z,25.00
2022-09-01T12:49:18.310Z,25.00
2022-09-01T12:51:29.218Z,25.00
2022-09-01T12:53:36.953Z,24.90
2022-09-01T12:55:47.819Z,24.80
2022-09-01T12:57:53.486Z,24.80
2022-09-01T13:00:18.071Z,24.90
2022-09-01T13:02:36.717Z,24.80
2022-09-01T13:04:41.653Z,24.90
2022-09-01T13:06:45.673Z,24.60
2022-09-01T13:08:48.459Z,24.50
2022-09-01T13:10:53.343Z,24.50
2022-09-01T13:12:58.001Z,24.80
2022-09-01T13:15:00.923Z,24.90
2022-09-01T13:17:04.176Z,25.00
2022-09-01T13:19:11.643Z,25.20
2022-09-01T13:21:15.223Z,25.30
2022-09-01T13:23:18.457Z,25.40
2022-09-01T13:25:23.208Z,25.30
2022-09-01T13:27:26.015Z,25.40
2022-09-01T13:29:29.628Z,25.30
2022-09-01T13:31:32.900Z,25.40
2022-09-01T13:36:42.877Z,25.60
2022-09-01T13:38:26.076Z,25.50
2022-09-01T13:40:28.902Z,25.30
2022-09-01T13:42:32.162Z,25.20
2022-09-01T13:44:35.575Z,25.40
2022-09-01T13:49:03.597Z,25.30
2022-09-01T13:51:18.583Z,25.30
2022-09-01T13:53:22.030Z,25.30
2022-09-01T13:55:27.390Z,25.30
2022-09-01T13:57:31.534Z,25.40
2022-09-01T13:59:39.278Z,25.40
2022-09-01T14:01:42.864Z,25.40
2022-09-01T14:03:50.020Z,25.50
2022-09-01T14:05:54.744Z,25.80
2022-09-01T14:07:59.402Z,26.10
2022-09-01T14:10:02.704Z,26.40
2022-09-01T14:12:06.347Z,26.60
2022-09-01T14:14:09.211Z,26.50
2022-09-01T14:16:12.679Z,26.30
2022-09-01T14:18:16.681Z,26.30
2022-09-01T14:20:22.260Z,26.30
2022-09-01T14:22:25.042Z,26.20
2022-09-01T14:24:29.147Z,26.10
2022-09-01T14:26:31.885Z,26.10
2022-09-01T14:28:34.627Z,26.20
2022-09-01T14:30:37.900Z,26.20
2022-09-01T14:32:40.656Z,26.40
2022-09-01T14:34:43.467Z,26.40
2022-09-01T14:36:47.514Z,26.30
2022-09-01T14:38:51.243Z,26.30
2022-09-01T14:40:55.439Z,26.30
2022-09-01T14:42:58.547Z,26.30
2022-09-01T14:45:02.006Z,26.20
2022-09-01T14:47:06.370Z,26.30
2022-09-01T14:49:20.281Z,26.60
2022-09-01T14:52:10.336Z,26.70
2022-09-01T14:53:50.961Z,26.70
2022-09-01T14:55:56.947Z,26.60
2022-09-01T14:58:00.362Z,26.60
2022-09-01T15:00:04.444Z,26.60
2022-09-01T15:02:07.420Z,26.40
2022-09-01T15:04:10.308Z,26.40
2022-09-01T15:06:14.347Z,26.40
2022-09-01T15:08:17.947Z,26.50
2022-09-01T15:10:24.540Z,26.50
2022-09-01T15:12:31.129Z,26.60
2022-09-01T15:14:34.028Z,26.60
2022-09-01T15:16:39.701Z,26.50
2022-09-01T15:18:42.600Z,26.50
2022-09-01T15:20:48.738Z,26.60
2022-09-01T15:22:53.908Z,26.50
2022-09-01T15:24:56.696Z,26.50
2022-09-01T15:26:59.510Z,26.40
2022-09-01T15:29:03.635Z,26.40
2022-09-01T15:31:08.084Z,26.40
2022-09-01T15:33:15.391Z,26.10
2022-09-01T15:35:20.087Z,26.00
2022-09-01T15:37:22.856Z,25.90
2022-09-01T15:39:25.638Z,25.80
2022-09-01T15:41:37.917Z,25.90
2022-09-01T15:43:40.665Z,26.00
2022-09-01T15:45:47.423Z,26.00
2022-09-01T15:47:50.479Z,25.90
2022-09-01T15:49:56.303Z,26.00
2022-09-01T15:51:59.099Z,26.10
2022-09-01T15:54:04.166Z,26.10
2022-09-01T15:56:07.364Z,26.00
2022-09-01T15:58:10.976Z,25.90
2022-09-01T16:00:14.718Z,25.90
2022-09-01T16:02:21.318Z,25.90
2022-09-01T16:04:27.772Z,26.00
2022-09-01T16:06:31.339Z,26.00
2022-09-01T16:08:35.396Z,26.10
2022-09-01T16:10:42.141Z,26.10
2022-09-01T16:12:46.581Z,26.00
2022-09-01T16:14:50.280Z,26.10
2022-09-01T16:17:03.206Z,26.10
2022-09-01T16:19:18.253Z,25.90
2022-09-01T16:21:27.756Z,25.90
2022-09-01T16:23:38.808Z,25.90
2022-09-01T16:25:42.081Z,26.00
2022-09-01T16:27:46.384Z,26.10
2022-09-01T16:29:51.783Z,26.20
2022-09-01T16:31:57.177Z,26.30
2022-09-01T16:34:02.878Z,26.00
2022-09-01T16:36:19.533Z,25.80
2022-09-01T16:38:34.163Z,25.80
2022-09-01T16:40:44.201Z,26.10
2022-09-01T16:42:57.970Z,26.00
2022-09-01T16:45:10.850Z,25.90
2022-09-01T16:47:39.872Z,26.00
2022-09-01T16:49:50.153Z,25.80
2022-09-01T16:52:03.789Z,25.80
2022-09-01T16:54:17.567Z,26.00
2022-09-01T16:56:26.603Z,25.90
2022-09-01T16:58:42.200Z,25.60
2022-09-01T17:00:53.939Z,25.60
2022-09-01T17:03:08.977Z,25.50
2022-09-01T17:05:25.522Z,25.60
2022-09-01T17:07:34.088Z,25.70
2022-09-01T17:09:40.599Z,25.70
2022-09-01T17:11:50.061Z,25.70
2022-09-01T17:13:55.847Z,25.70
2022-09-01T17:16:07.887Z,25.60
2022-09-01T17:18:22.131Z,25.40
2022-09-01T17:20:30.382Z,25.10
2022-09-01T17:22:36.567Z,24.80
2022-09-01T17:24:42.700Z,24.80
2022-09-01T17:26:47.764Z,24.90
2022-09-01T17:28:56.188Z,24.80
2022-09-01T17:31:06.812Z,24.90
2022-09-01T17:33:19.396Z,24.90
2022-09-01T17:35:29.871Z,24.60
2022-09-01T17:37:40.512Z,24.40
2022-09-01T17:39:55.407Z,24.30
2022-09-01T17:42:02.311Z,24.40
2022-09-01T17:44:17.948Z,24.40
2022-09-01T17:46:28.997Z,24.40
2022-09-01T17:48:42.520Z,24.40
2022-09-01T17:51:01.148Z,24.50
2022-09-01T17:53:14.057Z,24.40
2022-09-01T17:55:26.208Z,24.40
2022-09-01T17:57:36.430Z,24.50
2022-09-01T17:59:47.409Z,24.40
2022-09-01T18:02:02.565Z,24.40
2022-09-01T18:04:40.903Z,24.30
2022-09-01T18:06:50.026Z,24.30
2022-09-01T18:08:58.231Z,24.20
2022-09-01T18:11:05.948Z,24.20
2022-09-01T18:13:30.830Z,24.10
2022-09-01T18:15:48.993Z,24.10
2022-09-01T18:18:06.234Z,23.80
2022-09-01T18:20:12.165Z,23.70
2022-09-01T18:22:17.757Z,23.70
2022-09-01T18:24:26.180Z,23.60
2022-09-01T18:26:34.790Z,23.60
2022-09-01T18:28:37.894Z,23.60
2022-09-01T18:30:54.694Z,23.50
2022-09-01T18:33:04.419Z,23.50
2022-09-01T18:35:30.315Z,23.40
2022-09-01T18:37:41.124Z,23.40
2022-09-01T18:39:55.937Z,23.30
2022-09-01T18:42:10.923Z,23.30
2022-09-01T18:44:34.756Z,23.20
2022-09-01T18:46:43.679Z,23.10
2022-09-01T18:49:00.879Z,23.10
2022-09-01T18:51:13.990Z,23.00
2022-09-01T18:53:30.360Z,23.10
2022-09-01T18:55:43.725Z,23.00
2022-09-01T18:57:52.072Z,23.10
2022-09-01T19:00:16.980Z,23.00
2022-09-01T19:02:35.409Z,22.90
2022-09-01T19:04:42.224Z,22.80
2022-09-01T19:06:53.440Z,22.80
2022-09-01T19:09:07.637Z,22.70
2022-09-01T19:11:18.190Z,22.80
2022-09-01T19:13:44.868Z,22.80
2022-09-01T19:15:56.860Z,22.80
2022-09-01T19:18:19.153Z,22.70
2022-09-01T19:20:26.703Z,22.70
2022-09-01T19:22:40.304Z,22.40
2022-09-01T19:24:48.026Z,22.40
2022-09-01T19:26:57.635Z,22.40
2022-09-01T19:29:05.739Z,22.40
2022-09-01T19:31:25.698Z,22.40
2022-09-01T19:33:35.955Z,22.40
2022-09-01T19:35:43.255Z,22.30
2022-09-01T19:37:51.013Z,22.20
2022-09-01T19:39:54.602Z,22.30
2022-09-01T19:42:04.471Z,22.40
2022-09-01T19:44:15.148Z,22.40
2022-09-01T19:46:27.864Z,22.40
2022-09-01T19:48:38.231Z,22.30
2022-09-01T19:50:48.718Z,22.20
2022-09-01T19:53:01.965Z,22.20
2022-09-01T19:55:10.576Z,22.20
2022-09-01T19:57:20.096Z,22.10
2022-09-01T19:59:28.166Z,22.00
2022-09-01T20:01:40.511Z,21.80
2022-09-01T20:03:47.935Z,21.80
2022-09-01T20:05:55.337Z,21.80
2022-09-01T20:08:03.257Z,21.80
2022-09-01T20:10:23.187Z,21.90
2022-09-01T20:12:34.909Z,21.90
2022-09-01T20:14:56.876Z,21.90
2022-09-01T20:17:03.356Z,21.90
2022-09-01T20:19:11.580Z,21.70
2022-09-01T20:21:18.946Z,21.70
2022-09-01T20:23:29.234Z,21.70
2022-09-01T20:25:41.170Z,21.80
2022-09-01T20:27:51.712Z,21.70
2022-09-01T20:30:01.550Z,21.70
2022-09-01T20:32:05.199Z,21.70
2022-09-01T20:34:15.137Z,21.60
2022-09-01T20:36:22.191Z,21.60
2022-09-01T20:38:46.239Z,21.50
2022-09-01T20:40:50.366Z,21.50
2022-09-01T20:43:06.575Z,21.40
2022-09-01T20:45:14.049Z,21.50
2022-09-01T20:47:16.865Z,21.30
2022-09-01T20:49:19.718Z,21.40
2022-09-01T20:51:30.892Z,21.20
2022-09-01T20:53:55.501Z,21.30
2022-09-01T20:56:04.249Z,21.40
2022-09-01T20:58:15.829Z,21.40
2022-09-01T21:00:22.957Z,21.30
2022-09-01T21:02:43.630Z,21.20
2022-09-01T21:04:55.710Z,21.20
2022-09-01T21:07:05.916Z,21.00
2022-09-01T21:09:13.595Z,21.00
2022-09-01T21:11:34.145Z,21.00
2022-09-01T21:13:55.392Z,21.10
2022-09-01T21:16:04.627Z,21.20
2022-09-01T21:18:22.839Z,21.30
2022-09-01T21:20:35.432Z,21.30
2022-09-01T21:22:38.223Z,21.20
2022-09-01T21:24:43.017Z,21.10
2022-09-01T21:26:49.288Z,21.20
2022-09-01T21:28:56.192Z,21.20
2022-09-01T21:31:01.829Z,21.10
2022-09-01T21:33:05.063Z,21.10
2022-09-01T21:35:11.364Z,21.10
2022-09-01T21:37:14.317Z,21.00
2022-09-01T21:39:17.187Z,21.00
2022-09-01T21:41:19.940Z,21.00
2022-09-01T21:43:26.059Z,21.00
2022-09-01T21:45:33.041Z,20.90
2022-09-01T21:47:36.046Z,20.90
2022-09-01T21:49:39.485Z,20.90
2022-09-01T21:51:42.712Z,20.90
2022-09-01T21:53:46.544Z,20.90
2022-09-01T21:55:49.758Z,20.80
2022-09-01T21:57:52.705Z,20.80
2022-09-01T21:59:55.433Z,20.80
2022-09-01T22:02:00.646Z,20.80
2022-09-01T22:04:05.255Z,20.80
2022-09-01T22:06:12.354Z,20.90
2022-09-01T22:08:17.123Z,20.90
2022-09-01T22:10:23.652Z,20.70
2022-09-01T22:12:26.674Z,20.80
2022-09-01T22:14:29.488Z,20.80
2022-09-01T22:16:33.298Z,20.80
2022-09-01T22:18:37.459Z,20.70
2022-09-01T22:20:40.862Z,20.80
2022-09-01T22:22:44.313Z,20.70
2022-09-01T22:24:47.180Z,20.80
2022-09-01T22:26:50.131Z,20.80
2022-09-01T22:28:55.388Z,20.70
2022-09-01T22:30:58.675Z,20.70
2022-09-01T22:33:02.577Z,20.70
2022-09-01T22:35:08.942Z,20.70
2022-09-01T22:37:11.787Z,20.70
2022-09-01T22:39:17.088Z,20.70
2022-09-01T22:41:21.458Z,20.60
2022-09-01T22:43:24.868Z,20.60
2022-09-01T22:45:28.064Z,20.50
2022-09-01T22:47:31.005Z,20.50
2022-09-01T22:49:38.036Z,20.40
2022-09-01T22:51:43.786Z,20.30
2022-09-01T22:53:47.692Z,20.20
2022-09-01T22:55:53.012Z,20.10
2022-09-01T22:57:55.897Z,20.00
2022-09-01T23:00:00.879Z,19.90
2022-09-01T23:02:03.684Z,19.80
2022-09-01T23:04:09.172Z,19.70
2022-09-01T23:06:13.843Z,19.70
2022-09-01T23:08:25.900Z,19.50
2022-09-01T23:10:29.141Z,19.50
2022-09-01T23:12:31.909Z,19.60
2022-09-01T23:14:34.740Z,19.50
2022-09-01T23:16:37.758Z,19.40
2022-09-01T23:18:42.733Z,19.40
2022-09-01T23:20:45.604Z,19.30
2022-09-01T23:22:48.354Z,19.30
2022-09-01T23:24:53.659Z,19.20
2022-09-01T23:26:56.763Z,19.30
2022-09-01T23:29:00.635Z,19.30
2022-09-01T23:31:03.436Z,19.20
2022-09-01T23:33:06.647Z,19.20
2022-09-01T23:35:10.442Z,19.20
2022-09-01T23:37:13.169Z,19.20
2022-09-01T23:39:16.243Z,19.20
2022-09-01T23:41:23.534Z,18.90
2022-09-01T23:43:27.487Z,19.00
2022-09-01T23:45:35.775Z,19.00
2022-09-01T23:47:39.073Z,18.90
2022-09-01T23:49:42.349Z,18.70
2022-09-01T23:51:46.672Z,18.70
2022-09-01T23:53:51.080Z,18.60
2022-09-01T23:55:56.549Z,18.40
2022-09-01T23:58:00.725Z,18.40
